Time;durP1;ratioP1;P1;durP2;ratioP2;P2;SDS_P1;SDS_P2;PMS_P1;PMS_P2;Temp;Humidity;BMP_temperature;BMP_pressure;BME280_temperature;BME280_humidity;BME280_pressure;Samples;Min_cycle;Max_cycle;Signal;HPM_P1;HPM_P2
2021/11/25 00:02:22;;;;;;;42.95;21.75;;;-2.80;95.30;;;;;;5022297;28;20068;-74
2021/11/25 00:04:47;;;;;;;47.60;22.17;;;-2.80;94.80;;;;;;5022416;28;20527;-73
2021/11/25 00:07:13;;;;;;;50.00;22.88;;;-2.80;95.60;;;;;;5023431;28;20100;-73
2021/11/25 00:09:39;;;;;;;55.83;24.27;;;-2.70;94.90;;;;;;5019984;28;20103;-73
2021/11/25 00:12:05;;;;;;;47.97;22.60;;;-2.70;94.80;;;;;;5023930;28;20025;-73
2021/11/25 00:14:31;;;;;;;45.88;23.45;;;-2.70;94.70;;;;;;5023922;28;20108;-73
2021/11/25 00:16:56;;;;;;;43.67;20.73;;;-2.60;94.40;;;;;;5027586;28;20120;-73
2021/11/25 00:19:22;;;;;;;43.03;21.45;;;-2.60;94.40;;;;;;5023862;28;20120;-74
2021/11/25 00:21:47;;;;;;;42.63;20.50;;;-2.60;94.50;;;;;;5020900;28;20026;-73
2021/11/25 00:24:13;;;;;;;45.00;20.33;;;-2.50;94.00;;;;;;5023050;28;20095;-73
2021/11/25 00:26:42;;;;;;;46.97;20.55;;;-2.50;94.70;;;;;;5021047;28;20037;-74
2021/11/25 00:29:07;;;;;;;53.15;22.30;;;-2.60;95.50;;;;;;5019220;28;20109;-73
2021/11/25 00:31:33;;;;;;;49.70;21.90;;;-2.70;95.40;;;;;;5020099;28;20104;-73
2021/11/25 00:34:02;;;;;;;42.03;20.35;;;-2.80;95.10;;;;;;5024112;28;20038;-73
2021/11/25 00:36:28;;;;;;;35.97;19.95;;;-2.80;94.40;;;;;;5019230;28;20040;-73
2021/11/25 00:38:54;;;;;;;41.50;20.52;;;-2.70;94.00;;;;;;5019788;28;20323;-73
2021/11/25 00:41:20;;;;;;;38.03;19.35;;;-2.70;95.20;;;;;;5017853;28;20044;-73
2021/11/25 00:43:45;;;;;;;37.22;20.88;;;-2.90;95.50;;;;;;5022139;28;20040;-73
2021/11/25 00:46:11;;;;;;;43.50;19.92;;;-2.90;94.90;;;;;;5022214;28;20029;-73
2021/11/25 00:48:37;;;;;;;46.70;21.27;;;-2.90;94.90;;;;;;5021406;28;20067;-73
2021/11/25 00:51:03;;;;;;;43.25;19.83;;;-2.90;94.90;;;;;;5021185;28;20060;-72
2021/11/25 00:53:28;;;;;;;41.50;20.83;;;-2.90;94.20;;;;;;5025131;28;20037;-72
2021/11/25 00:55:54;;;;;;;57.13;23.05;;;-2.80;94.20;;;;;;5022593;28;20059;-73
2021/11/25 00:58:20;;;;;;;54.67;22.58;;;-2.90;95.20;;;;;;5022605;28;20026;-72
2021/11/25 01:00:46;;;;;;;37.60;18.15;;;-3.00;95.60;;;;;;5018540;28;20025;-74
2021/11/25 01:03:12;;;;;;;48.40;20.52;;;-3.10;95.00;;;;;;5022690;28;20100;-74
2021/11/25 01:05:38;;;;;;;48.78;20.63;;;-3.10;95.30;;;;;;5024428;28;20037;-74
2021/11/25 01:08:04;;;;;;;41.90;19.77;;;-3.10;94.80;;;;;;5023174;28;20026;-74
2021/11/25 01:10:30;;;;;;;41.10;18.95;;;-3.10;94.40;;;;;;5019086;28;20084;-74
2021/11/25 01:12:57;;;;;;;43.88;19.35;;;-3.10;94.60;;;;;;5024156;28;20129;-72
2021/11/25 01:15:29;;;;;;;37.72;18.92;;;-3.10;95.20;;;;;;5034897;28;20037;-72
2021/11/25 01:18:05;;;;;;;39.08;19.25;;;-3.10;94.70;;;;;;5027871;28;20141;-73
2021/11/25 01:20:33;;;;;;;45.05;21.45;;;-3.20;94.90;;;;;;5025121;28;20022;-73
2021/11/25 01:23:00;;;;;;;50.70;21.98;;;-3.20;94.60;;;;;;5023707;28;20092;-73
2021/11/25 01:25:26;;;;;;;47.17;20.67;;;-3.20;94.70;;;;;;5022359;28;20053;-72
2021/11/25 01:27:51;;;;;;;39.60;18.55;;;-3.20;95.00;;;;;;5036078;28;20057;-73
2021/11/25 01:30:17;;;;;;;42.70;20.23;;;-3.30;94.90;;;;;;5038305;28;20030;-74
2021/11/25 01:32:43;;;;;;;42.17;19.02;;;-3.30;94.80;;;;;;5024566;28;20080;-73
2021/11/25 01:35:10;;;;;;;32.20;17.48;;;-3.30;94.90;;;;;;5025469;28;20109;-73
2021/11/25 01:37:36;;;;;;;42.20;19.63;;;-3.30;94.10;;;;;;5021152;28;20033;-73
2021/11/25 01:40:04;;;;;;;45.70;20.85;;;-3.30;94.30;;;;;;5029562;28;20027;-73
2021/11/25 01:42:30;;;;;;;39.13;17.65;;;-3.30;94.40;;;;;;5016998;28;20325;-73
2021/11/25 01:44:55;;;;;;;32.83;17.42;;;-3.30;94.20;;;;;;5025030;28;20112;-73
2021/11/25 01:47:21;;;;;;;38.45;20.45;;;-3.20;93.40;;;;;;5030178;28;20033;-73
2021/11/25 01:49:49;;;;;;;46.65;20.27;;;-3.00;92.90;;;;;;5026210;28;20105;-73
2021/11/25 01:52:15;;;;;;;41.00;19.48;;;-3.00;94.00;;;;;;5020412;28;20120;-73
2021/11/25 01:54:41;;;;;;;40.60;19.35;;;-2.90;94.40;;;;;;5022379;28;20041;-73
2021/11/25 01:57:07;;;;;;;32.00;17.45;;;-2.90;93.60;;;;;;5024821;28;20033;-73
2021/11/25 01:59:36;;;;;;;34.22;18.02;;;-2.80;93.40;;;;;;5025578;28;20104;-73
2021/11/25 02:02:03;;;;;;;37.10;18.42;;;-2.80;93.80;;;;;;5023975;28;20031;-72
2021/11/25 02:04:29;;;;;;;44.72;20.88;;;-2.90;94.80;;;;;;5023087;28;20034;-73
2021/11/25 02:06:55;;;;;;;44.03;20.20;;;-3.00;95.30;;;;;;5020048;28;20030;-73
2021/11/25 02:09:21;;;;;;;52.50;21.95;;;-3.10;95.30;;;;;;5022647;28;20080;-73
2021/11/25 02:11:47;;;;;;;40.25;19.77;;;-3.00;94.80;;;;;;5030484;28;20033;-74
2021/11/25 02:14:12;;;;;;;36.70;18.30;;;-3.10;95.10;;;;;;5032503;28;20033;-73
2021/11/25 02:16:39;;;;;;;39.63;19.23;;;-3.10;94.10;;;;;;5030555;28;20029;-73
2021/11/25 02:19:06;;;;;;;43.03;19.58;;;-3.00;94.20;;;;;;5037437;28;20426;-73
2021/11/25 02:21:32;;;;;;;39.75;19.15;;;-3.10;95.10;;;;;;5031270;28;20026;-73
2021/11/25 02:23:57;;;;;;;51.47;22.55;;;-3.20;95.30;;;;;;5023198;28;20056;-73
2021/11/25 02:26:24;;;;;;;41.72;19.92;;;-3.20;95.40;;;;;;5022237;28;20053;-73
2021/11/25 02:28:50;;;;;;;51.00;21.27;;;-3.40;95.90;;;;;;5026224;28;20480;-73
2021/11/25 02:31:15;;;;;;;37.35;17.95;;;-3.50;95.70;;;;;;5025307;28;20037;-73
2021/11/25 02:33:42;;;;;;;47.75;21.33;;;-3.50;95.20;;;;;;5025060;28;20029;-73
2021/11/25 02:36:11;;;;;;;54.95;22.92;;;-3.50;95.20;;;;;;5037129;28;20017;-73
2021/11/25 02:38:38;;;;;;;37.63;17.38;;;-3.50;94.60;;;;;;5036055;28;20021;-74
2021/11/25 02:41:04;;;;;;;48.55;21.10;;;-3.40;94.40;;;;;;5030048;28;20025;-73
2021/11/25 02:43:32;;;;;;;51.58;23.02;;;-3.40;94.70;;;;;;5037308;28;20096;-73
2021/11/25 02:46:04;;;;;;;39.53;18.80;;;-3.40;94.30;;;;;;5026401;28;20033;-74
2021/11/25 02:48:42;;;;;;;40.78;19.77;;;-3.40;94.80;;;;;;5023950;28;20026;-73
2021/11/25 02:51:10;;;;;;;50.47;23.02;;;-3.40;94.00;;;;;;5025919;28;20083;-73
2021/11/25 02:53:36;;;;;;;50.28;22.55;;;-3.30;93.30;;;;;;5021342;28;20025;-73
2021/11/25 02:56:08;;;;;;;52.03;23.08;;;-3.20;93.50;;;;;;5029367;28;20040;-73
2021/11/25 02:58:34;;;;;;;50.90;22.77;;;-3.20;93.80;;;;;;5025601;28;20116;-73
2021/11/25 03:01:18;;;;;;;42.40;21.17;;;-3.20;94.40;;;;;;5023257;28;20017;-73
2021/11/25 03:03:45;;;;;;;51.70;22.85;;;-3.30;93.90;;;;;;5025777;28;20112;-73
2021/11/25 03:06:11;;;;;;;46.72;22.88;;;-3.30;94.10;;;;;;5026715;28;20025;-73
2021/11/25 03:08:37;;;;;;;42.00;20.70;;;-3.20;93.20;;;;;;5026118;28;21591;-73
2021/11/25 03:11:06;;;;;;;43.75;20.73;;;-3.20;93.80;;;;;;5026676;28;20057;-73
2021/11/25 03:13:33;;;;;;;43.20;20.83;;;-3.20;93.80;;;;;;5023610;28;20034;-73
2021/11/25 03:15:59;;;;;;;49.60;22.40;;;-3.10;93.10;;;;;;5023286;28;20022;-73
2021/11/25 03:18:26;;;;;;;45.83;22.20;;;-3.10;93.60;;;;;;5024830;28;20475;-73
2021/11/25 03:20:54;;;;;;;37.40;19.42;;;-3.20;94.30;;;;;;5022673;28;20022;-73
2021/11/25 03:23:24;;;;;;;42.55;20.83;;;-3.20;93.60;;;;;;5018986;28;20480;-73
2021/11/25 03:25:50;;;;;;;48.72;22.23;;;-3.30;94.30;;;;;;5022777;28;20104;-73
2021/11/25 03:28:17;;;;;;;54.63;22.70;;;-3.20;93.30;;;;;;5022873;28;20135;-73
2021/11/25 03:30:43;;;;;;;48.67;24.02;;;-3.10;92.80;;;;;;5031588;28;20108;-73
2021/11/25 03:33:13;;;;;;;48.60;22.15;;;-3.00;92.90;;;;;;5036485;28;20060;-73
2021/11/25 03:35:39;;;;;;;58.45;23.45;;;-3.00;93.40;;;;;;5028012;28;20026;-73
2021/11/25 03:38:06;;;;;;;43.47;21.92;;;-2.90;93.00;;;;;;5020795;28;20819;-72
2021/11/25 03:40:33;;;;;;;43.70;21.25;;;-2.90;93.50;;;;;;5018707;28;20132;-73
2021/11/25 03:42:58;;;;;;;43.70;20.60;;;-2.90;94.10;;;;;;5022422;28;20029;-73
2021/11/25 03:45:24;;;;;;;53.13;23.48;;;-3.00;94.40;;;;;;5021768;28;20036;-72
2021/11/25 03:47:50;;;;;;;43.75;21.25;;;-3.00;94.20;;;;;;5021669;28;20029;-72
2021/11/25 03:50:16;;;;;;;50.47;23.20;;;-3.10;94.30;;;;;;5023350;28;20029;-72
2021/11/25 03:52:42;;;;;;;35.63;18.80;;;-3.10;94.40;;;;;;5015813;28;20445;-72
2021/11/25 03:55:11;;;;;;;30.73;16.92;;;-3.10;93.80;;;;;;5024192;28;20025;-71
2021/11/25 03:57:37;;;;;;;43.80;19.95;;;-3.10;93.30;;;;;;5022248;28;20369;-72
2021/11/25 04:00:06;;;;;;;40.08;19.13;;;-3.10;94.70;;;;;;5026946;28;20021;-73
2021/11/25 04:02:32;;;;;;;41.40;18.77;;;-3.30;95.40;;;;;;5022115;28;20060;-73
2021/11/25 04:04:58;;;;;;;45.83;19.70;;;-3.50;95.90;;;;;;5025787;28;20029;-73
2021/11/25 04:07:23;;;;;;;43.13;19.20;;;-3.60;95.10;;;;;;5024577;28;20414;-73
2021/11/25 04:09:49;;;;;;;41.25;20.23;;;-3.60;94.60;;;;;;5015443;28;20041;-74
2021/11/25 04:12:14;;;;;;;39.80;18.17;;;-3.60;94.10;;;;;;5019271;28;20033;-73
2021/11/25 04:14:41;;;;;;;35.03;18.05;;;-3.60;94.60;;;;;;5023174;28;20049;-73
2021/11/25 04:17:10;;;;;;;38.22;18.70;;;-3.60;94.90;;;;;;5023845;28;20033;-73
2021/11/25 04:19:36;;;;;;;40.63;19.00;;;-3.50;93.30;;;;;;5020359;28;20101;-73
2021/11/25 04:22:02;;;;;;;41.58;20.27;;;-3.40;93.90;;;;;;5019551;28;20025;-73
2021/11/25 04:24:27;;;;;;;39.70;18.52;;;-3.40;94.40;;;;;;5018923;28;20049;-73
2021/11/25 04:26:53;;;;;;;51.25;21.70;;;-3.40;94.60;;;;;;5017611;28;20076;-73
2021/11/25 04:29:19;;;;;;;70.63;38.30;;;-3.50;95.10;;;;;;5020157;28;20025;-73
2021/11/25 04:37:16;;;;;;;;;;;-3.70;94.50;;;;;;5021404;28;20038;-73
2021/11/25 04:39:42;;;;;;;47.58;21.58;;;-3.70;94.20;;;;;;5017975;28;19913;-73
2021/11/25 04:42:09;;;;;;;46.00;20.70;;;-3.60;94.00;;;;;;5021970;28;20021;-72
2021/11/25 04:44:35;;;;;;;64.75;30.55;;;-3.60;94.30;;;;;;5019667;28;20026;-73
2021/11/25 04:47:01;;;;;;;64.85;32.97;;;-3.60;93.70;;;;;;5019984;28;20025;-73
2021/11/25 04:49:27;;;;;;;55.20;24.90;;;-3.40;93.90;;;;;;5022295;28;20026;-73
2021/11/25 04:51:52;;;;;;;46.42;21.75;;;-3.50;94.80;;;;;;5020630;28;20036;-74
2021/11/25 04:54:18;;;;;;;41.47;19.35;;;-3.60;94.30;;;;;;5017554;28;20030;-73
2021/11/25 04:56:46;;;;;;;47.60;22.48;;;-3.60;93.90;;;;;;5019977;28;20038;-73
2021/11/25 04:59:12;;;;;;;50.78;22.25;;;-3.60;94.40;;;;;;5020919;28;20314;-73
2021/11/25 05:01:38;;;;;;;40.25;19.25;;;-3.60;94.00;;;;;;5021005;28;20022;-73
2021/11/25 05:04:03;;;;;;;45.78;21.15;;;-3.60;93.80;;;;;;5022686;28;20037;-73
2021/11/25 05:06:29;;;;;;;102.93;48.47;;;-3.60;93.80;;;;;;5019956;28;20025;-73
2021/11/25 05:08:55;;;;;;;62.85;28.52;;;-3.60;93.20;;;;;;5021423;28;20045;-73
2021/11/25 05:11:20;;;;;;;104.22;46.75;;;-3.60;93.90;;;;;;5020291;28;20045;-72
2021/11/25 05:13:46;;;;;;;55.03;28.05;;;-3.70;94.70;;;;;;5019800;28;20033;-73
2021/11/25 05:16:12;;;;;;;56.85;24.27;;;-3.80;94.70;;;;;;5020486;28;20032;-73
2021/11/25 05:18:39;;;;;;;40.63;19.55;;;-3.90;94.60;;;;;;5024488;28;20049;-73
2021/11/25 05:21:04;;;;;;;49.47;21.02;;;-3.90;94.70;;;;;;5020965;28;20025;-73
2021/11/25 05:23:30;;;;;;;37.33;18.75;;;-3.90;94.30;;;;;;5020975;28;20079;-73
2021/11/25 05:25:56;;;;;;;37.33;18.70;;;-3.90;94.10;;;;;;5020162;28;20029;-73
2021/11/25 05:28:21;;;;;;;37.75;19.55;;;-3.80;93.90;;;;;;5021037;28;20034;-73
2021/11/25 05:30:47;;;;;;;40.75;19.65;;;-3.70;93.50;;;;;;5020236;28;20116;-73
2021/11/25 05:33:15;;;;;;;39.85;19.30;;;-3.60;93.80;;;;;;5022177;28;20058;-73
2021/11/25 05:35:41;;;;;;;45.88;20.83;;;-3.60;94.00;;;;;;5022562;28;20567;-73
2021/11/25 05:38:07;;;;;;;53.13;22.90;;;-3.50;93.90;;;;;;5018161;28;20060;-73
2021/11/25 05:40:33;;;;;;;42.97;19.85;;;-3.40;94.00;;;;;;5019747;28;20060;-73
2021/11/25 05:42:58;;;;;;;39.38;19.70;;;-3.40;94.10;;;;;;5020073;28;20450;-73
2021/11/25 05:45:24;;;;;;;46.67;22.13;;;-3.30;93.20;;;;;;5022391;28;20105;-73
2021/11/25 05:47:50;;;;;;;36.85;19.15;;;-3.30;93.30;;;;;;5019974;28;20113;-73
2021/11/25 05:50:19;;;;;;;34.83;18.70;;;-3.20;93.20;;;;;;5019998;28;20030;-73
2021/11/25 05:52:49;;;;;;;39.70;19.77;;;-3.10;92.90;;;;;;5023520;28;20026;-73
2021/11/25 05:55:16;;;;;;;33.17;17.98;;;-3.00;93.40;;;;;;5022741;28;20030;-73
2021/11/25 05:57:41;;;;;;;40.97;20.75;;;-3.00;93.40;;;;;;5034270;28;20306;-73
2021/11/25 06:00:11;;;;;;;40.17;22.02;;;-2.90;93.50;;;;;;5023031;28;20029;-73
2021/11/25 06:02:44;;;;;;;51.13;27.77;;;-2.90;93.90;;;;;;5025394;28;20037;-73
2021/11/25 06:05:12;;;;;;;47.33;23.65;;;-2.90;94.10;;;;;;5016862;28;20116;-72
2021/11/25 06:07:42;;;;;;;34.80;18.95;;;-2.90;94.50;;;;;;5025864;28;20041;-72
2021/11/25 06:10:08;;;;;;;36.10;18.50;;;-2.90;94.00;;;;;;5024596;28;20116;-73
2021/11/25 06:12:34;;;;;;;37.70;18.67;;;-2.80;93.20;;;;;;5023220;28;20308;-73
2021/11/25 06:14:59;;;;;;;37.35;19.58;;;-2.80;93.80;;;;;;5023290;28;20033;-73
2021/11/25 06:17:25;;;;;;;36.20;18.48;;;-2.70;93.60;;;;;;5027952;28;20399;-72
2021/11/25 06:19:54;;;;;;;35.85;18.70;;;-2.70;93.70;;;;;;5023686;28;20033;-73
2021/11/25 06:22:21;;;;;;;32.33;17.90;;;-2.70;93.90;;;;;;5025535;28;20115;-73
2021/11/25 06:24:47;;;;;;;43.80;21.65;;;-2.60;94.10;;;;;;5022045;28;20037;-72
2021/11/25 06:27:13;;;;;;;37.15;19.50;;;-2.60;94.30;;;;;;5024561;28;20033;-73
2021/11/25 06:29:38;;;;;;;38.85;18.85;;;-2.60;94.50;;;;;;5022411;28;20036;-72
2021/11/25 06:32:04;;;;;;;38.97;20.13;;;-2.60;94.70;;;;;;5022220;28;20033;-73
2021/11/25 06:34:30;;;;;;;36.33;19.17;;;-2.50;94.50;;;;;;5024334;28;20040;-72
2021/11/25 06:36:56;;;;;;;36.50;19.08;;;-2.50;94.50;;;;;;5023644;28;20322;-73
2021/11/25 06:39:22;;;;;;;43.10;20.95;;;-2.40;94.80;;;;;;5020022;28;20118;-73
2021/11/25 06:41:48;;;;;;;37.97;20.05;;;-2.40;94.90;;;;;;5023517;28;20057;-73
2021/11/25 06:44:13;;;;;;;35.17;18.50;;;-2.40;94.70;;;;;;5024306;28;20037;-72
2021/11/25 06:46:39;;;;;;;36.70;20.00;;;-2.30;95.00;;;;;;5023830;28;20048;-73
2021/11/25 06:49:05;;;;;;;34.75;18.35;;;-2.30;95.20;;;;;;5020344;28;20044;-72
2021/11/25 06:51:31;;;;;;;35.40;18.15;;;-2.20;94.20;;;;;;5025842;28;20035;-72
2021/11/25 06:53:57;;;;;;;41.33;20.83;;;-2.20;95.00;;;;;;5020991;28;20322;-72
2021/11/25 06:56:23;;;;;;;42.58;21.52;;;-2.20;95.50;;;;;;5022301;28;20025;-73
2021/11/25 06:58:50;;;;;;;41.05;21.25;;;-2.20;95.40;;;;;;5023606;28;20029;-73
2021/11/25 07:01:16;;;;;;;41.05;20.88;;;-2.10;95.20;;;;;;5024267;28;20018;-73
2021/11/25 07:03:42;;;;;;;39.90;21.48;;;-2.10;95.60;;;;;;5025514;28;20033;-73
2021/11/25 07:06:07;;;;;;;40.70;20.90;;;-2.00;95.90;;;;;;5024662;28;20040;-73
2021/11/25 07:08:33;;;;;;;43.38;21.30;;;-2.10;96.30;;;;;;5026291;28;20033;-73
2021/11/25 07:11:02;;;;;;;36.70;19.10;;;-2.10;96.40;;;;;;5034273;28;20095;-73
2021/11/25 07:13:27;;;;;;;33.58;18.42;;;-2.00;96.00;;;;;;5035995;28;20029;-72
2021/11/25 07:15:54;;;;;;;39.85;20.33;;;-2.00;96.20;;;;;;5032899;28;20136;-73
2021/11/25 07:18:20;;;;;;;42.05;20.10;;;-1.90;96.00;;;;;;5015134;28;20028;-73
2021/11/25 07:20:46;;;;;;;40.50;20.70;;;-1.90;96.10;;;;;;5014636;28;20026;-73
2021/11/25 07:23:11;;;;;;;38.28;19.05;;;-1.90;96.10;;;;;;5015113;28;20117;-73
2021/11/25 07:25:37;;;;;;;49.65;22.38;;;-1.90;96.20;;;;;;5029664;28;20037;-73
2021/11/25 07:28:03;;;;;;;40.30;20.80;;;-1.90;96.10;;;;;;5035094;28;20426;-73
2021/11/25 07:30:29;;;;;;;44.35;21.35;;;-1.90;95.80;;;;;;5034818;28;20045;-74
2021/11/25 07:32:54;;;;;;;41.35;21.83;;;-1.80;96.20;;;;;;5035100;28;20365;-73
2021/11/25 07:35:21;;;;;;;50.13;22.35;;;-1.90;96.00;;;;;;5035757;28;20021;-73
2021/11/25 07:37:49;;;;;;;44.03;21.55;;;-1.90;96.40;;;;;;5034012;28;20365;-73
2021/11/25 07:40:15;;;;;;;44.25;21.80;;;-1.80;95.90;;;;;;5034510;28;20025;-73
2021/11/25 07:42:40;;;;;;;48.35;23.08;;;-1.80;96.20;;;;;;5035217;28;20075;-72
2021/11/25 07:45:07;;;;;;;51.67;23.30;;;-1.70;95.90;;;;;;5034260;28;20030;-73
2021/11/25 07:47:33;;;;;;;52.60;23.40;;;-1.70;96.20;;;;;;5047625;28;20092;-73
2021/11/25 07:50:09;;;;;;;48.33;23.77;;;-1.60;96.10;;;;;;5054756;28;20036;-74
2021/11/25 07:52:35;;;;;;;46.63;22.92;;;-1.70;96.10;;;;;;5055259;28;20020;-72
2021/11/25 07:55:02;;;;;;;42.05;22.55;;;-1.50;95.60;;;;;;5053693;28;20078;-73
2021/11/25 07:57:28;;;;;;;46.95;23.33;;;-1.50;95.70;;;;;;5041326;28;20450;-73
2021/11/25 07:59:53;;;;;;;44.58;23.02;;;-1.50;96.60;;;;;;5034846;28;20077;-73
2021/11/25 08:02:20;;;;;;;42.22;21.38;;;-1.50;96.00;;;;;;5034548;28;20474;-73
2021/11/25 08:04:47;;;;;;;48.45;22.60;;;-1.40;96.00;;;;;;5033518;28;20032;-73
2021/11/25 08:07:13;;;;;;;46.65;22.45;;;-1.40;96.60;;;;;;5033970;28;20032;-73
2021/11/25 08:09:38;;;;;;;46.75;22.95;;;-1.30;96.10;;;;;;5033615;28;20450;-73
2021/11/25 08:12:05;;;;;;;42.45;21.58;;;-1.20;96.90;;;;;;5033323;28;20112;-73
2021/11/25 08:14:30;;;;;;;56.65;25.17;;;-1.20;96.10;;;;;;5033962;28;20044;-73
2021/11/25 08:16:58;;;;;;;48.75;23.45;;;-1.10;96.70;;;;;;5034205;28;20410;-73
2021/11/25 08:19:25;;;;;;;43.42;21.13;;;-1.20;96.60;;;;;;5034965;28;20021;-73
2021/11/25 08:21:51;;;;;;;49.80;23.13;;;-1.30;96.90;;;;;;5034100;28;20025;-73
2021/11/25 08:24:17;;;;;;;56.33;26.30;;;-1.20;96.50;;;;;;5032604;28;20025;-73
2021/11/25 08:26:43;;;;;;;51.05;24.17;;;-1.10;96.90;;;;;;5034407;28;20026;-73
2021/11/25 08:29:08;;;;;;;55.58;25.15;;;-1.10;96.90;;;;;;5034816;28;20032;-73
2021/11/25 08:31:34;;;;;;;44.97;23.02;;;-1.10;96.80;;;;;;5033414;28;20045;-73
2021/11/25 08:34:00;;;;;;;49.00;24.35;;;-1.00;96.70;;;;;;5034142;28;20030;-73
2021/11/25 08:36:26;;;;;;;46.83;22.73;;;-0.90;96.30;;;;;;5030723;28;20024;-73
2021/11/25 08:38:51;;;;;;;48.58;23.48;;;-0.90;97.00;;;;;;5033669;28;20061;-73
2021/11/25 08:41:17;;;;;;;51.92;24.77;;;-1.00;96.70;;;;;;5035764;28;20101;-73
2021/11/25 08:43:43;;;;;;;51.92;25.38;;;-0.80;96.60;;;;;;5035727;28;20101;-73
2021/11/25 08:46:09;;;;;;;50.13;26.23;;;-0.80;97.10;;;;;;5034715;28;20029;-73
2021/11/25 08:48:35;;;;;;;59.63;27.77;;;-1.00;97.50;;;;;;5033690;28;20518;-74
2021/11/25 08:51:03;;;;;;;60.05;26.88;;;-1.00;97.50;;;;;;5034327;28;20091;-73
2021/11/25 08:53:32;;;;;;;89.97;30.85;;;-1.00;97.50;;;;;;5034287;28;20071;-73
2021/11/25 08:55:58;;;;;;;62.60;26.35;;;-1.00;98.00;;;;;;5035637;28;20040;-73
2021/11/25 08:58:23;;;;;;;62.47;27.85;;;-1.00;97.50;;;;;;5035287;28;20048;-73
2021/11/25 09:00:50;;;;;;;57.92;25.50;;;-0.90;97.50;;;;;;5035634;28;20025;-72
2021/11/25 09:03:15;;;;;;;73.65;27.38;;;-0.90;97.50;;;;;;5035555;28;20032;-73
2021/11/25 09:05:41;;;;;;;80.45;29.23;;;-0.80;97.50;;;;;;5035231;28;20354;-73
2021/11/25 09:08:07;;;;;;;74.60;28.75;;;-0.70;97.30;;;;;;5034064;28;20040;-73
2021/11/25 09:10:35;;;;;;;89.60;34.10;;;-0.90;98.00;;;;;;5035078;28;20050;-74
2021/11/25 09:13:02;;;;;;;206.13;35.33;;;-0.80;97.70;;;;;;5035496;28;20071;-73
2021/11/25 09:15:33;;;;;;;271.42;40.55;;;-0.80;98.00;;;;;;5035353;28;20038;-74
2021/11/25 09:18:02;;;;;;;104.25;33.80;;;-0.90;97.70;;;;;;5034210;28;20021;-73
2021/11/25 09:20:33;;;;;;;119.53;34.72;;;-0.90;97.20;;;;;;5035255;28;20033;-72
2021/11/25 09:23:16;;;;;;;79.00;30.73;;;-0.90;97.70;;;;;;5035275;28;20032;-73
2021/11/25 09:25:42;;;;;;;86.35;32.65;;;-0.80;96.30;;;;;;5035173;28;20025;-73
2021/11/25 09:28:10;;;;;;;112.57;34.45;;;-0.70;96.50;;;;;;5033894;28;20061;-74
2021/11/25 09:30:41;;;;;;;77.75;30.85;;;-0.70;97.10;;;;;;5035314;28;20104;-74
2021/11/25 09:33:07;;;;;;;92.00;35.03;;;-0.70;97.00;;;;;;5035413;28;20322;-72
2021/11/25 09:35:33;;;;;;;161.27;34.70;;;-0.60;96.90;;;;;;5038539;28;20028;-73
2021/11/25 09:37:59;;;;;;;98.88;31.98;;;-0.70;98.00;;;;;;5038698;28;20025;-73
2021/11/25 09:40:27;;;;;;;100.85;30.48;;;-0.80;97.30;;;;;;5037354;28;20082;-72
2021/11/25 09:43:00;;;;;;;102.57;30.30;;;-0.70;97.20;;;;;;5038945;28;20029;-72
2021/11/25 09:45:30;;;;;;;111.50;31.75;;;-0.60;97.30;;;;;;5037584;28;20307;-72
2021/11/25 09:48:09;;;;;;;94.15;29.63;;;-0.70;97.60;;;;;;5038340;28;20041;-73
2021/11/25 09:50:43;;;;;;;148.50;30.40;;;-0.70;97.60;;;;;;5019229;28;20033;-73
2021/11/25 09:53:10;;;;;;;89.30;30.58;;;-0.70;97.20;;;;;;5018560;28;20437;-74
2021/11/25 09:55:37;;;;;;;98.78;28.23;;;-0.70;97.40;;;;;;5025420;28;20025;-74
2021/11/25 09:58:04;;;;;;;66.05;28.13;;;-0.60;97.40;;;;;;5037665;28;20412;-74
2021/11/25 10:00:34;;;;;;;57.90;25.95;;;-0.50;97.40;;;;;;5038635;28;20310;-74
2021/11/25 10:03:00;;;;;;;54.40;25.30;;;-0.20;97.10;;;;;;5038418;28;20071;-73
2021/11/25 10:05:26;;;;;;;112.20;28.33;;;0.00;97.90;;;;;;5037697;28;20036;-73
2021/11/25 10:07:52;;;;;;;69.82;28.75;;;0.00;98.00;;;;;;5037982;28;20029;-73
2021/11/25 10:10:29;;;;;;;90.95;30.67;;;-0.10;98.00;;;;;;5037018;28;20100;-73
2021/11/25 10:13:13;;;;;;;69.88;30.17;;;-0.20;98.00;;;;;;5035597;28;20033;-73
2021/11/25 10:15:40;;;;;;;95.20;28.13;;;-0.10;98.00;;;;;;5019106;28;20358;-73
2021/11/25 10:18:11;;;;;;;57.65;28.08;;;-0.20;98.00;;;;;;5037365;28;20100;-73
2021/11/25 10:20:39;;;;;;;53.72;25.58;;;-0.20;98.00;;;;;;5038118;28;20144;-73
2021/11/25 10:23:06;;;;;;;89.50;29.13;;;-0.10;98.00;;;;;;5037080;28;20021;-73
2021/11/25 10:25:56;;;;;;;81.40;26.40;;;-0.10;98.00;;;;;;5038011;28;20032;-73
2021/11/25 10:28:27;;;;;;;59.15;25.80;;;-0.20;98.00;;;;;;5037845;28;20129;-73
2021/11/25 10:31:06;;;;;;;86.63;27.60;;;-0.30;98.00;;;;;;5038169;28;20032;-73
2021/11/25 10:33:55;;;;;;;52.97;25.20;;;-0.30;98.00;;;;;;5037916;28;20044;-73
2021/11/25 10:36:30;;;;;;;53.20;25.42;;;-0.40;98.00;;;;;;5037678;28;20021;-73
2021/11/25 10:39:13;;;;;;;49.08;23.75;;;-0.30;98.00;;;;;;5033825;28;20033;-73
2021/11/25 10:41:41;;;;;;;90.72;26.70;;;-0.20;98.00;;;;;;5035861;28;20355;-73
2021/11/25 10:44:07;;;;;;;57.17;24.70;;;-0.10;98.00;;;;;;5035019;28;20025;-73
2021/11/25 10:46:47;;;;;;;51.17;24.55;;;-0.10;98.00;;;;;;5034422;28;20025;-73
2021/11/25 10:49:14;;;;;;;62.97;24.90;;;-0.10;98.00;;;;;;5036742;28;20114;-73
2021/11/25 10:51:43;;;;;;;46.47;23.90;;;0.00;98.00;;;;;;5036485;28;20025;-73
2021/11/25 10:54:10;;;;;;;58.53;26.52;;;0.10;98.00;;;;;;5035479;28;20022;-73
2021/11/25 10:56:44;;;;;;;54.45;24.67;;;0.10;98.00;;;;;;5040399;28;20021;-73
2021/11/25 10:59:13;;;;;;;59.45;28.20;;;0.10;98.00;;;;;;5056631;28;20410;-73
2021/11/25 11:01:43;;;;;;;52.15;24.63;;;0.10;98.00;;;;;;5056005;28;20029;-73
2021/11/25 11:04:10;;;;;;;53.50;27.23;;;0.20;98.00;;;;;;5048126;28;20025;-73
2021/11/25 11:06:38;;;;;;;50.60;25.63;;;0.20;98.00;;;;;;5036119;28;20029;-73
2021/11/25 11:09:06;;;;;;;60.28;26.85;;;0.20;98.00;;;;;;5035051;28;20508;-72
2021/11/25 11:11:34;;;;;;;40.22;22.23;;;0.30;98.00;;;;;;5036476;28;20044;-72
2021/11/25 11:14:13;;;;;;;39.78;20.65;;;0.40;98.00;;;;;;5032184;28;20088;-73
2021/11/25 11:16:46;;;;;;;42.03;23.45;;;0.60;98.00;;;;;;5016061;28;20017;-72
2021/11/25 11:19:16;;;;;;;40.57;23.27;;;0.70;98.00;;;;;;5016672;28;20477;-72
2021/11/25 11:21:45;;;;;;;42.22;23.52;;;0.80;98.00;;;;;;5015891;28;20029;-74
2021/11/25 11:24:19;;;;;;;42.70;22.85;;;0.70;98.00;;;;;;5022086;28;20029;-72
2021/11/25 11:26:51;;;;;;;42.53;22.27;;;0.80;98.00;;;;;;5034697;28;20029;-73
2021/11/25 11:29:19;;;;;;;50.15;27.00;;;0.70;98.00;;;;;;5035015;28;20121;-73
2021/11/25 11:31:47;;;;;;;47.85;25.00;;;0.50;98.00;;;;;;5035540;28;20453;-72
2021/11/25 11:34:15;;;;;;;48.80;25.48;;;0.40;98.00;;;;;;5035794;28;20030;-73
2021/11/25 11:36:43;;;;;;;42.20;23.30;;;0.30;98.00;;;;;;5035356;28;20026;-73
2021/11/25 11:39:11;;;;;;;52.20;26.27;;;0.30;98.00;;;;;;5034810;28;20013;-73
2021/11/25 11:41:40;;;;;;;46.80;22.92;;;0.30;98.00;;;;;;5034681;28;20025;-72
2021/11/25 11:44:06;;;;;;;42.13;22.92;;;0.20;98.00;;;;;;5033186;28;20036;-72
2021/11/25 11:46:34;;;;;;;41.42;23.65;;;0.30;98.00;;;;;;5037139;28;20033;-72
2021/11/25 11:49:04;;;;;;;48.45;24.95;;;0.30;98.00;;;;;;5030247;28;20013;-72
2021/11/25 11:51:32;;;;;;;52.70;27.60;;;0.40;98.00;;;;;;5034023;28;20053;-72
2021/11/25 11:53:58;;;;;;;50.58;26.92;;;0.20;98.00;;;;;;5033246;28;20322;-72
2021/11/25 11:56:43;;;;;;;46.95;24.60;;;0.20;98.00;;;;;;5028470;28;20026;-72
2021/11/25 11:59:10;;;;;;;48.28;24.98;;;0.20;98.00;;;;;;5034226;28;20032;-73
2021/11/25 12:01:36;;;;;;;51.05;26.27;;;0.20;98.00;;;;;;5034856;28;20025;-72
2021/11/25 12:04:15;;;;;;;41.95;24.50;;;0.10;98.00;;;;;;5035379;28;20071;-72
2021/11/25 12:06:45;;;;;;;52.17;26.63;;;0.20;98.00;;;;;;5034656;28;20024;-72
2021/11/25 12:09:22;;;;;;;51.88;25.95;;;0.00;98.00;;;;;;5019001;28;20438;-72
2021/11/25 12:11:52;;;;;;;51.90;27.30;;;0.00;98.00;;;;;;5034374;28;20033;-72
2021/11/25 12:14:24;;;;;;;47.33;24.90;;;-0.10;98.00;;;;;;5033935;28;20447;-73
2021/11/25 12:17:08;;;;;;;54.92;27.42;;;-0.10;98.00;;;;;;5034038;28;20322;-72
2021/11/25 12:19:38;;;;;;;51.78;26.50;;;-0.30;98.00;;;;;;5033867;28;20025;-73
2021/11/25 12:22:15;;;;;;;58.90;29.15;;;-0.30;98.00;;;;;;5034552;28;20100;-73
2021/11/25 12:24:48;;;;;;;51.25;25.80;;;-0.20;98.00;;;;;;5033547;28;20079;-73
2021/11/25 12:27:29;;;;;;;54.05;25.80;;;-0.20;98.00;;;;;;5034516;28;20049;-72
2021/11/25 12:29:59;;;;;;;43.78;23.63;;;-0.20;98.00;;;;;;5032965;28;20042;-73
2021/11/25 12:32:48;;;;;;;49.83;26.45;;;-0.10;98.00;;;;;;5033790;28;20079;-72
2021/11/25 12:35:26;;;;;;;55.72;27.30;;;0.00;98.00;;;;;;5034795;28;20022;-72
2021/11/25 12:37:55;;;;;;;55.60;28.52;;;0.00;98.00;;;;;;5032166;28;20025;-72